Hub


Voltar

 INFORMAÇÕES METEOROLÓGICAS

METAR FOR PAYA


ADDS - METARS form results

(1326 UTC 27 June 2019)
Data provider http://aviationweather.gov/metar/data/
 
METAR text: PAYA 271319Z AUTO 00000KT 7SM BKN003 10/09 A3002 RMK AO2 T01000094 TSNO
Conditions at: PAYA (YAKUTAT , AK, US) observed 1319 UTC 27 June 2019
Temperature: 10.0°C (50°F)
Dewpoint: 9.4°C (49°F) [RH = 96%]
Pressure (altimeter): 30.02 inches Hg (1016.7 mb)
Winds: calm
Visibility: 7 miles (11 km)
Ceiling: 300 feet AGL
Clouds: broken clouds at 300 feet AGL
Weather: automated observation with no human augmentation;
there may or may not be significant weather present at this time

METAR text: PAYA 271259Z AUTO 00000KT 4SM BR FEW004 10/09 A3003 RMK AO2 T01000094 TSNO
Conditions at: PAYA (YAKUTAT , AK, US) observed 1259 UTC 27 June 2019
Temperature: 10.0°C (50°F)
Dewpoint: 9.4°C (49°F) [RH = 96%]
Pressure (altimeter): 30.03 inches Hg (1017.0 mb)
Winds: calm
Visibility: 4 miles ( 6 km)
Ceiling: at least 12,000 feet AGL
Clouds: few clouds at 400 feet AGL
Weather: BR  (mist)

METAR text: PAYA 271253Z AUTO 00000KT 1 1/2SM BR CLR 09/09 A3002 RMK AO2 SLP167 T00940089 TSNO
Conditions at: PAYA (YAKUTAT , AK, US) observed 1253 UTC 27 June 2019
Temperature: 9.4°C (49°F)
Dewpoint: 8.9°C (48°F) [RH = 97%]
Pressure (altimeter): 30.02 inches Hg (1016.7 mb)
[Sea-level pressure: 1016.7 mb]
Winds: calm
Visibility: 1.50 miles (2.41 km)
Ceiling: at least 12,000 feet AGL
Clouds: sky clear below 12,000 feet AGL
Weather: BR  (mist)

METAR text: PAYA 271250Z AUTO 00000KT 1 3/4SM BR CLR 09/09 A3002 RMK AO2 TSNO
Conditions at: PAYA (YAKUTAT , AK, US) observed 1250 UTC 27 June 2019
Temperature: 9.0°C (48°F)
Dewpoint: 9.0°C (48°F) [RH = 100%]
Pressure (altimeter): 30.02 inches Hg (1016.7 mb)
Winds: calm
Visibility: 1.75 miles (2.82 km)
Ceiling: at least 12,000 feet AGL
Clouds: sky clear below 12,000 feet AGL
Weather: BR  (mist)

METAR text: PAYA 271237Z AUTO 00000KT 3SM BR CLR 10/09 A3002 RMK AO2 T01000094 TSNO
Conditions at: PAYA (YAKUTAT , AK, US) observed 1237 UTC 27 June 2019
Temperature: 10.0°C (50°F)
Dewpoint: 9.4°C (49°F) [RH = 96%]
Pressure (altimeter): 30.02 inches Hg (1016.7 mb)
Winds: calm
Visibility: 3 miles ( 5 km)
Ceiling: at least 12,000 feet AGL
Clouds: sky clear below 12,000 feet AGL
Weather: BR  (mist)

METAR text: PAYA 271227Z AUTO 00000KT 1 3/4SM BR CLR 10/09 A3002 RMK AO2 T01000094 TSNO
Conditions at: PAYA (YAKUTAT , AK, US) observed 1227 UTC 27 June 2019
Temperature: 10.0°C (50°F)
Dewpoint: 9.4°C (49°F) [RH = 96%]
Pressure (altimeter): 30.02 inches Hg (1016.7 mb)
Winds: calm
Visibility: 1.75 miles (2.82 km)
Ceiling: at least 12,000 feet AGL
Clouds: sky clear below 12,000 feet AGL
Weather: BR  (mist)

Forecast for: PAYA (YAKUTAT , AK, US)
Text: PAYA 271136Z 2712/2812 30003KT 6SM BR FEW002
Forecast period: 1200 to 1700 UTC 27 June 2019
Forecast type: FROM: standard forecast or significant change
Winds: from the WNW (300 degrees) at 3 MPH (3 knots; 1.5 m/s)
Visibility: 6 miles (10 km)
Ceiling: at least 12,000 feet AGL
Clouds: few clouds at 200 feet AGL
Weather: BR  (mist)
Text: TEMPO 2712/2716 2SM BR SCT002
Forecast period: 1200 to 1600 UTC 27 June 2019
Forecast type: TEMPORARY: The following changes expected for less than half the time period
Visibility: 2.00 miles (3.22 km)
Ceiling: at least 12,000 feet AGL
Clouds: scattered clouds at 200 feet AGL
Weather: BR  (mist)
Text: FM271700 30006KT P6SM SKC
Forecast period: 1700 UTC 27 June 2019 to 0500 UTC 28 June 2019
Forecast type: FROM: standard forecast or significant change
Winds: from the WNW (300 degrees) at 7 MPH (6 knots; 3.1 m/s)
Visibility: 6 or more miles 10+ km)
Clouds: clear skies
Weather: no significant weather forecast for this period
Text: FM280500 VRB03KT P6SM SKC AMD LTD TO CLD VIS AND WIND
Forecast period: 0500 to 1200 UTC 28 June 2019
Forecast type: FROM: standard forecast or significant change
Winds: variable direction winds at 3 MPH (3 knots; 1.5 m/s)
Visibility: 6 or more miles 10+ km)
Clouds: clear skies
Weather: no significant weather forecast for this period


 MAPA DO AEROPORTO


 INFORMAÇÕES DA PISTA

Pista 02 Tamanho da pista 6475 ft Largura da pista 150 ft
Elevação da pista 18 ft Ranhura da pista 0 ft Proa da pista 45
Pista 20 Tamanho da pista 6475 ft Largura da pista 150 ft
Elevação da pista 30 ft Ranhura da pista 0 ft Proa da pista 225
Pista 11 Tamanho da pista 7745 ft Largura da pista 150 ft
Elevação da pista 32 ft Ranhura da pista 0 ft Proa da pista 135
Pista 29 Tamanho da pista 7745 ft Largura da pista 150 ft
Elevação da pista 19 ft Ranhura da pista 0 ft Proa da pista 315

 FREQUÊNCIAS DO AEROPORTO


 AUXÍLIOS DE NAVEGAÇÃO PRÓXIMOS AO AEROPORTO

Tipo NDB Nome Ocean Cape Frequência 385 KHZ
Tipo VOR-DME Nome Yakutat Frequência 113300 KHZ